Time;durP1;ratioP1;P1;durP2;ratioP2;P2;SDS_P1;SDS_P2;PMS_P1;PMS_P2;Temp;Humidity;BMP_temperature;BMP_pressure;BME280_temperature;BME280_humidity;BME280_pressure;Samples;Min_cycle;Max_cycle;Signal;HPM_P1;HPM_P2
2023/06/20 00:01:34;;;;;;;4.55;4.03;;;;;;;25.85;50.46;99698.06;10391948;28;20065;-51
2023/06/20 00:06:35;;;;;;;5.38;3.63;;;;;;;25.75;50.28;99706.81;10392601;28;20147;-51
2023/06/20 00:11:37;;;;;;;4.07;3.78;;;;;;;25.67;51.17;99719.97;10390327;28;20077;-51
2023/06/20 00:16:38;;;;;;;4.10;3.80;;;;;;;25.72;51.03;99715.47;10390239;28;20129;-51
2023/06/20 00:21:40;;;;;;;3.83;3.53;;;;;;;25.73;51.01;99708.13;10394838;28;20182;-51
2023/06/20 00:26:41;;;;;;;4.45;4.05;;;;;;;25.67;52.18;99718.09;10385249;28;20064;-52
2023/06/20 00:31:43;;;;;;;4.05;3.67;;;;;;;25.47;53.93;99736.66;10389653;28;20171;-50
2023/06/20 00:36:44;;;;;;;5.20;4.22;;;;;;;25.53;54.30;99754.78;10387683;28;20962;-53
2023/06/20 00:41:46;;;;;;;5.88;4.35;;;;;;;25.50;56.43;99766.16;10400141;28;20128;-51
2023/06/20 00:46:47;;;;;;;4.47;3.90;;;;;;;25.37;58.55;99765.31;10398533;28;20057;-50
2023/06/20 00:51:50;;;;;;;4.82;4.35;;;;;;;25.18;60.21;99759.06;10403089;28;20569;-50
2023/06/20 00:56:51;;;;;;;4.23;3.83;;;;;;;25.08;59.72;99749.78;10397617;28;20060;-50
2023/06/20 01:01:53;;;;;;;5.05;4.47;;;;;;;24.93;59.66;99740.13;10399376;28;20140;-51
2023/06/20 01:07:07;;;;;;;5.30;4.82;;;;;;;24.97;61.20;99735.91;10398070;28;20069;-51
2023/06/20 01:12:17;;;;;;;6.28;5.10;;;;;;;25.03;60.88;99726.81;10399230;28;20061;-51
2023/06/20 01:17:27;;;;;;;5.32;4.82;;;;;;;25.03;63.06;99718.63;10394385;28;20056;-52
2023/06/20 01:22:38;;;;;;;5.68;5.18;;;;;;;24.92;61.76;99713.16;10394805;28;20651;-51
2023/06/20 01:27:58;;;;;;;5.63;5.13;;;;;;;24.84;63.84;99717.03;10396752;28;20053;-51
2023/06/20 01:33:02;;;;;;;5.82;5.35;;;;;;;24.90;63.17;99694.31;10393373;28;20292;-51
2023/06/20 01:38:08;;;;;;;5.47;5.07;;;;;;;24.92;62.52;99699.53;10393244;28;20044;-51
2023/06/20 01:43:12;;;;;;;5.45;4.97;;;;;;;24.89;62.88;99700.81;10394313;28;20114;-51
2023/06/20 01:48:17;;;;;;;5.78;5.10;;;;;;;24.85;62.32;99726.88;10396026;28;21024;-51
2023/06/20 01:53:23;;;;;;;7.95;4.55;;;;;;;24.85;62.50;99727.69;10386501;28;20058;-51
2023/06/20 01:58:25;;;;;;;4.97;4.45;;;;;;;24.83;62.22;99729.81;10392220;28;20052;-51
2023/06/20 02:03:28;;;;;;;5.40;5.00;;;;;;;24.72;63.52;99738.75;10396297;28;20053;-50
2023/06/20 02:08:31;;;;;;;5.88;5.30;;;;;;;24.59;64.27;99758.81;10390951;28;20045;-51
2023/06/20 02:13:34;;;;;;;6.85;6.25;;;;;;;24.40;65.07;99770.72;10393657;28;20065;-51
2023/06/20 02:18:35;;;;;;;;;;;;;;;24.18;67.34;99762.97;10390273;28;20048;-51
2023/06/20 02:23:39;;;;;;;9.88;6.15;;;;;;;24.27;66.75;99771.69;10385441;28;20023;-51
2023/06/20 02:28:44;;;;;;;6.80;6.22;;;;;;;24.28;66.72;99766.00;10396478;28;20057;-51
2023/06/20 02:33:48;;;;;;;7.68;7.00;;;;;;;24.18;67.27;99757.53;10395201;28;20111;-51
2023/06/20 02:38:50;;;;;;;7.93;7.00;;;;;;;24.19;67.88;99775.53;10392042;28;20056;-51
2023/06/20 02:43:51;;;;;;;8.23;7.53;;;;;;;24.18;68.13;99771.13;10396505;28;20140;-50
2023/06/20 02:49:15;;;;;;;8.02;7.28;;;;;;;24.16;68.12;99765.94;10395145;28;20061;-50
2023/06/20 02:54:26;;;;;;;7.28;6.68;;;;;;;24.16;68.71;99773.25;10397299;28;20056;-50
2023/06/20 02:59:32;;;;;;;7.35;6.75;;;;;;;24.12;69.34;99786.44;10397764;28;20041;-50
2023/06/20 03:04:35;;;;;;;8.75;7.90;;;;;;;24.09;71.43;99807.84;10396369;28;20048;-50
2023/06/20 03:09:37;;;;;;;11.80;8.63;;;;;;;24.02;75.36;99807.91;10394286;28;20059;-50
2023/06/20 03:14:40;;;;;;;8.55;7.80;;;;;;;24.00;76.93;99799.97;10389838;28;20624;-50
2023/06/20 03:19:42;;;;;;;;;;;;;;;23.93;76.83;99791.03;10391376;28;20053;-50
2023/06/20 03:24:45;;;;;;;8.45;7.65;;;;;;;23.89;78.29;99775.41;10394628;28;20581;-50
2023/06/20 03:29:49;;;;;;;9.23;8.32;;;;;;;23.88;78.55;99754.72;10392399;28;20299;-50
2023/06/20 03:34:50;;;;;;;10.02;9.13;;;;;;;23.85;78.88;99755.13;10395049;28;22166;-50
2023/06/20 03:39:52;;;;;;;9.32;7.97;;;;;;;23.84;79.22;99738.00;10391941;28;20134;-50
2023/06/20 03:44:54;;;;;;;10.40;9.30;;;;;;;23.82;79.31;99740.09;10395823;28;20054;-50
2023/06/20 03:49:55;;;;;;;10.73;9.65;;;;;;;23.79;79.78;99762.28;10393605;28;20046;-50
2023/06/20 03:54:56;;;;;;;11.52;10.43;;;;;;;23.62;79.81;99776.41;10387549;28;20134;-50
2023/06/20 03:59:58;;;;;;;11.07;10.15;;;;;;;23.58;80.41;99774.34;10388951;28;20779;-52
2023/06/20 04:04:59;;;;;;;11.38;10.25;;;;;;;23.65;81.60;99794.97;10391402;28;20705;-51
2023/06/20 04:10:01;;;;;;;13.82;10.63;;;;;;;23.60;82.68;99780.38;10386423;28;20045;-51
2023/06/20 04:15:03;;;;;;;11.02;10.13;;;;;;;23.63;82.40;99774.53;10391744;28;20057;-51
2023/06/20 04:20:11;;;;;;;10.52;9.52;;;;;;;23.65;82.81;99778.69;10396686;28;20057;-51
2023/06/20 04:25:14;;;;;;;11.18;10.18;;;;;;;23.67;83.16;99770.31;10399753;28;20138;-52
2023/06/20 04:30:15;;;;;;;11.50;10.43;;;;;;;23.65;83.50;99770.53;10403605;28;20617;-52
2023/06/20 04:35:17;;;;;;;10.52;9.57;;;;;;;23.61;81.23;99777.44;10394723;28;20092;-52
2023/06/20 04:40:18;;;;;;;11.50;10.45;;;;;;;23.61;81.39;99772.03;10399090;28;20048;-52
2023/06/20 04:45:19;;;;;;;11.77;10.68;;;;;;;23.57;81.18;99765.38;10397400;28;20128;-51
2023/06/20 04:50:22;;;;;;;10.20;9.40;;;;;;;23.59;81.48;99774.13;10393303;28;20195;-51
2023/06/20 04:55:23;;;;;;;12.20;11.20;;;;;;;23.57;81.40;99768.09;10396554;28;20099;-51
2023/06/20 05:00:27;;;;;;;12.02;10.93;;;;;;;23.49;81.12;99776.50;10394743;28;20299;-52
2023/06/20 05:05:29;;;;;;;9.98;9.05;;;;;;;23.47;81.30;99765.88;10397351;28;20106;-56
2023/06/20 05:10:31;;;;;;;10.18;9.20;;;;;;;23.44;79.91;99770.91;10380165;28;20249;-56
2023/06/20 05:15:32;;;;;;;8.55;7.80;;;;;;;23.39;80.21;99773.44;10388724;28;20626;-56
2023/06/20 05:20:34;;;;;;;8.50;7.40;;;;;;;23.37;78.90;99789.13;10381208;28;20045;-56
2023/06/20 05:25:37;;;;;;;8.57;7.85;;;;;;;23.40;79.80;99802.28;10383949;28;20049;-56
2023/06/20 05:30:38;;;;;;;8.47;7.77;;;;;;;23.50;80.82;99799.09;10390416;28;20720;-56
2023/06/20 05:35:41;;;;;;;9.55;8.57;;;;;;;23.52;78.53;99786.94;10382660;28;20340;-57
2023/06/20 05:40:43;;;;;;;9.27;8.45;;;;;;;23.55;79.18;99802.78;10378731;28;20049;-56
2023/06/20 05:45:44;;;;;;;9.43;8.45;;;;;;;23.58;79.27;99793.38;10377173;28;20057;-57
2023/06/20 05:50:46;;;;;;;9.23;8.43;;;;;;;23.63;77.96;99804.44;10383029;28;20109;-57
2023/06/20 05:55:50;;;;;;;10.65;9.10;;;;;;;23.59;77.70;99816.78;10378782;28;20124;-58
2023/06/20 06:00:52;;;;;;;10.27;9.20;;;;;;;23.62;77.52;99808.19;10383718;28;20473;-56
2023/06/20 06:05:54;;;;;;;10.07;8.57;;;;;;;23.72;77.46;99810.41;10376646;28;20683;-56
2023/06/20 06:10:56;;;;;;;10.65;9.70;;;;;;;23.83;77.86;99801.53;10379560;28;20853;-57
2023/06/20 06:15:57;;;;;;;10.80;9.70;;;;;;;23.89;76.87;99813.44;10385487;28;20060;-57
2023/06/20 06:21:01;;;;;;;10.98;9.77;;;;;;;23.94;77.84;99813.59;10380682;28;20466;-57
2023/06/20 06:26:04;;;;;;;11.65;10.57;;;;;;;24.02;76.63;99794.31;10370364;28;20050;-56
2023/06/20 06:31:09;;;;;;;9.27;8.33;;;;;;;24.12;75.48;99799.22;10381977;28;20522;-59
2023/06/20 06:36:11;;;;;;;10.40;9.50;;;;;;;24.17;75.38;99783.09;10379765;28;20068;-57
2023/06/20 06:41:18;;;;;;;9.35;8.57;;;;;;;24.33;75.42;99801.50;10374564;28;20049;-57
2023/06/20 06:46:19;;;;;;;10.35;9.55;;;;;;;24.44;73.44;99799.09;10374258;28;20139;-57
2023/06/20 06:51:21;;;;;;;9.68;8.85;;;;;;;24.52;73.01;99809.72;10371307;28;20049;-56
2023/06/20 06:56:23;;;;;;;8.57;7.87;;;;;;;24.64;71.95;99807.91;10372697;28;20083;-57
2023/06/20 07:01:24;;;;;;;9.18;8.48;;;;;;;24.75;71.14;99813.66;10376032;28;20434;-56
2023/06/20 07:06:26;;;;;;;8.18;7.47;;;;;;;24.69;71.01;99824.38;10376461;28;20247;-56
2023/06/20 07:11:27;;;;;;;9.95;9.00;;;;;;;24.67;71.23;99823.78;10372668;28;20192;-57
2023/06/20 07:16:31;;;;;;;10.60;9.70;;;;;;;24.75;71.28;99808.22;10378226;28;20049;-57
2023/06/20 07:21:33;;;;;;;9.43;8.55;;;;;;;24.70;70.03;99806.19;10400316;28;20059;-57
2023/06/20 07:26:36;;;;;;;9.65;8.90;;;;;;;24.76;70.81;99820.78;10377309;28;20342;-56
2023/06/20 07:31:37;;;;;;;11.05;9.95;;;;;;;24.82;70.85;99814.41;10376975;28;20975;-57
2023/06/20 07:36:39;;;;;;;10.82;9.93;;;;;;;24.82;70.91;99804.34;10377838;28;20056;-56
2023/06/20 07:41:42;;;;;;;10.50;9.60;;;;;;;24.86;70.91;99810.16;10378707;28;20133;-57
2023/06/20 07:46:44;;;;;;;10.40;9.60;;;;;;;24.95;69.27;99802.53;10362780;28;20099;-56
2023/06/20 07:51:46;;;;;;;10.65;9.75;;;;;;;25.00;69.40;99810.84;10382166;28;20075;-55
2023/06/20 07:56:47;;;;;;;10.07;9.00;;;;;;;25.10;68.94;99799.41;10375832;28;20756;-55
2023/06/20 08:01:49;;;;;;;10.02;9.20;;;;;;;25.18;68.87;99799.09;10370195;28;20136;-55
2023/06/20 08:06:51;;;;;;;10.80;10.00;;;;;;;25.18;68.85;99801.81;10374643;28;20734;-57
2023/06/20 08:11:52;;;;;;;10.52;9.57;;;;;;;25.35;68.17;99791.94;10371448;28;20056;-56
2023/06/20 08:16:54;;;;;;;12.00;10.80;;;;;;;25.51;67.32;99773.28;10372091;28;20064;-56
2023/06/20 08:21:55;;;;;;;9.68;8.88;;;;;;;25.79;66.46;99793.56;10374307;28;20063;-57
2023/06/20 08:26:57;;;;;;;9.52;8.73;;;;;;;25.99;65.49;99796.84;10369905;28;20145;-57
2023/06/20 08:31:58;;;;;;;9.90;9.15;;;;;;;26.18;64.59;99791.25;10389091;28;20046;-57
2023/06/20 08:37:00;;;;;;;10.18;9.38;;;;;;;26.28;64.40;99784.13;10376372;28;20049;-55
2023/06/20 08:42:01;;;;;;;10.40;9.50;;;;;;;26.44;63.63;99785.31;10368409;28;20081;-56
2023/06/20 08:47:03;;;;;;;10.38;9.52;;;;;;;26.59;62.27;99783.97;10381621;28;21002;-56
2023/06/20 08:52:11;;;;;;;10.63;9.73;;;;;;;26.78;61.18;99782.78;10377959;28;20103;-56
2023/06/20 08:57:12;;;;;;;10.05;9.23;;;;;;;26.94;60.84;99777.59;10378022;28;20147;-57
2023/06/20 09:02:15;;;;;;;10.43;9.52;;;;;;;27.08;59.50;99769.94;10379331;28;20052;-58
2023/06/20 09:07:18;;;;;;;10.18;9.27;;;;;;;27.07;59.85;99780.06;10384699;28;20121;-57
2023/06/20 09:12:20;;;;;;;10.50;9.43;;;;;;;27.31;57.91;99780.75;10382147;28;20106;-57
2023/06/20 09:17:22;;;;;;;8.77;7.67;;;;;;;27.43;57.48;99779.88;10383087;28;20049;-56
2023/06/20 09:22:25;;;;;;;9.17;7.43;;;;;;;27.42;57.43;99784.53;10377051;28;20428;-60
2023/06/20 09:27:26;;;;;;;8.15;7.55;;;;;;;27.43;57.30;99779.88;10362532;28;20076;-57
2023/06/20 09:32:36;;;;;;;7.87;7.03;;;;;;;27.37;56.22;99787.19;10367817;28;20056;-57
2023/06/20 09:37:43;;;;;;;6.63;6.13;;;;;;;27.41;55.02;99774.66;10380009;28;20144;-57
2023/06/20 09:42:46;;;;;;;8.43;7.65;;;;;;;27.47;55.06;99784.66;10384791;28;20056;-57
2023/06/20 09:47:48;;;;;;;8.40;7.70;;;;;;;27.51;56.14;99769.38;10382598;28;20041;-57
2023/06/20 09:53:01;;;;;;;8.30;7.60;;;;;;;27.85;53.99;99763.13;10377140;28;20053;-57
2023/06/20 09:58:04;;;;;;;7.53;6.88;;;;;;;28.35;54.41;99747.72;10397418;28;20262;-57
2023/06/20 10:03:10;;;;;;;6.70;6.10;;;;;;;28.61;52.87;99754.34;10380250;28;20044;-57
2023/06/20 10:08:16;;;;;;;7.93;7.22;;;;;;;28.77;50.44;99746.34;10382203;28;20052;-56
2023/06/20 10:13:18;;;;;;;7.70;6.95;;;;;;;28.73;50.11;99752.31;10381107;28;20053;-57
2023/06/20 10:18:31;;;;;;;8.13;7.50;;;;;;;29.06;49.94;99752.38;10380085;28;20462;-61
2023/06/20 10:23:37;;;;;;;6.57;5.97;;;;;;;29.37;48.05;99748.06;10379437;28;20049;-56
2023/06/20 10:28:39;;;;;;;7.28;6.47;;;;;;;29.44;47.55;99762.38;10376179;28;20173;-56
2023/06/20 10:33:45;;;;;;;6.43;5.93;;;;;;;29.33;46.83;99754.31;10384540;28;20592;-56
2023/06/20 10:38:49;;;;;;;6.05;5.53;;;;;;;29.50;46.83;99749.56;10376503;28;20069;-56
2023/06/20 10:43:55;;;;;;;6.90;6.25;;;;;;;29.71;45.03;99738.72;10378341;28;20148;-57
2023/06/20 10:48:57;;;;;;;6.45;5.85;;;;;;;29.95;45.81;99745.53;10374708;28;20127;-57
2023/06/20 10:54:09;;;;;;;6.03;5.53;;;;;;;30.12;43.01;99750.03;10374909;28;20072;-56
2023/06/20 10:59:12;;;;;;;6.78;6.18;;;;;;;30.09;44.80;99742.31;10379929;28;20071;-56
2023/06/20 11:04:15;;;;;;;6.70;6.20;;;;;;;30.09;44.03;99739.59;10382290;28;20048;-57
2023/06/20 11:09:18;;;;;;;6.88;6.28;;;;;;;30.00;44.56;99730.19;10381253;28;20056;-57
2023/06/20 11:14:22;;;;;;;6.78;6.28;;;;;;;30.39;44.04;99732.59;10380487;28;20064;-56
2023/06/20 11:19:27;;;;;;;6.63;6.13;;;;;;;30.55;43.12;99719.78;10382653;28;20414;-56
2023/06/20 11:24:35;;;;;;;7.05;6.25;;;;;;;30.82;42.13;99727.81;10377572;28;20139;-56
2023/06/20 11:29:37;;;;;;;5.65;4.93;;;;;;;30.79;41.36;99725.59;10375770;28;20517;-57
2023/06/20 11:34:59;;;;;;;5.10;4.68;;;;;;;31.00;40.90;99721.00;10380208;28;20058;-55
2023/06/20 11:40:00;;;;;;;6.70;6.00;;;;;;;31.07;39.06;99727.06;10378657;28;20049;-56
2023/06/20 11:45:09;;;;;;;4.72;4.38;;;;;;;31.16;39.34;99708.13;10378908;28;20052;-56
2023/06/20 11:50:23;;;;;;;5.68;5.18;;;;;;;31.37;40.18;99704.28;10381499;28;20740;-57
2023/06/20 11:56:04;;;;;;;6.05;5.45;;;;;;;31.39;39.29;99701.25;10386925;28;20056;-57
2023/06/20 12:01:17;;;;;;;4.80;4.40;;;;;;;31.28;37.33;99702.38;10336620;28;20050;-57
2023/06/20 12:06:29;;;;;;;4.90;4.50;;;;;;;31.32;37.78;99698.78;10370032;28;20056;-58
2023/06/20 12:11:31;;;;;;;4.70;4.20;;;;;;;31.41;37.95;99689.97;10378524;28;20071;-58
2023/06/20 12:16:32;;;;;;;4.97;4.47;;;;;;;31.41;38.12;99682.56;10360869;28;20052;-58
2023/06/20 12:21:34;;;;;;;4.65;4.30;;;;;;;31.63;38.10;99673.22;10378852;28;20053;-58
2023/06/20 12:26:36;;;;;;;7.05;4.60;;;;;;;31.83;37.25;99675.13;10386073;28;20049;-57
2023/06/20 12:31:37;;;;;;;4.82;4.50;;;;;;;31.75;36.33;99672.91;10371857;28;20126;-58
2023/06/20 12:36:39;;;;;;;5.25;3.40;;;;;;;31.86;37.25;99661.63;10388236;28;20053;-58
2023/06/20 12:41:40;;;;;;;4.20;3.90;;;;;;;32.00;36.35;99650.84;10386346;28;20500;-57
2023/06/20 12:46:42;;;;;;;3.35;3.15;;;;;;;31.98;35.05;99658.56;10378847;28;20168;-58
2023/06/20 12:51:44;;;;;;;5.05;3.28;;;;;;;32.06;32.76;99659.91;10391409;28;20584;-64
2023/06/20 12:56:46;;;;;;;4.35;3.78;;;;;;;32.06;34.50;99649.69;10379628;28;20081;-58
2023/06/20 13:01:47;;;;;;;4.45;4.03;;;;;;;32.07;35.58;99637.59;10390061;28;20181;-58
2023/06/20 13:06:51;;;;;;;4.43;4.13;;;;;;;31.93;35.84;99639.28;10379157;28;20154;-58
2023/06/20 13:11:53;;;;;;;5.20;4.70;;;;;;;31.95;36.20;99631.59;10386002;28;20052;-57
2023/06/20 13:16:58;;;;;;;5.32;4.82;;;;;;;31.88;36.29;99626.38;10382739;28;20106;-58
2023/06/20 13:21:59;;;;;;;5.43;5.03;;;;;;;31.89;36.04;99638.22;10379072;28;23085;-58
2023/06/20 13:27:00;;;;;;;5.13;4.72;;;;;;;31.84;36.65;99632.72;10388356;28;20053;-58
2023/06/20 13:32:04;;;;;;;4.88;4.40;;;;;;;31.69;37.00;99622.59;10377045;28;20135;-57
2023/06/20 13:37:05;;;;;;;5.63;5.22;;;;;;;31.61;36.33;99623.16;10389883;28;20052;-58
2023/06/20 13:42:26;;;;;;;5.10;4.65;;;;;;;31.67;35.87;99614.63;10384165;28;20048;-56
2023/06/20 13:47:28;;;;;;;5.20;4.70;;;;;;;31.59;36.51;99615.19;10378967;28;20061;-58
2023/06/20 13:52:30;;;;;;;5.65;4.90;;;;;;;31.76;37.42;99617.63;10382781;28;20052;-58
2023/06/20 13:57:33;;;;;;;4.97;4.57;;;;;;;31.83;35.92;99617.34;10382818;28;20544;-58
2023/06/20 14:02:38;;;;;;;4.75;4.35;;;;;;;31.67;33.80;99616.56;10378462;28;20044;-58
2023/06/20 14:07:44;;;;;;;5.18;4.20;;;;;;;31.53;34.99;99624.53;10389762;28;20056;-64
2023/06/20 14:12:45;;;;;;;4.43;4.03;;;;;;;31.44;35.69;99626.22;10379636;28;20798;-59
2023/06/20 14:17:48;;;;;;;5.93;5.22;;;;;;;31.44;34.82;99615.22;10381673;28;20059;-58
2023/06/20 14:22:49;;;;;;;5.53;4.80;;;;;;;31.44;35.23;99612.47;10382040;28;20551;-59
2023/06/20 14:27:51;;;;;;;5.05;4.65;;;;;;;31.48;35.44;99597.03;10377200;28;20056;-57
2023/06/20 14:32:52;;;;;;;5.35;4.85;;;;;;;31.54;36.10;99584.91;10380091;28;20064;-58
2023/06/20 14:37:54;;;;;;;6.05;5.20;;;;;;;31.71;35.57;99582.69;10376797;28;20053;-58
2023/06/20 14:42:55;;;;;;;5.00;4.50;;;;;;;31.77;35.23;99580.75;10376857;28;20064;-57
2023/06/20 14:47:57;;;;;;;5.38;4.97;;;;;;;31.72;34.33;99578.84;10380244;28;20053;-57
2023/06/20 14:52:59;;;;;;;4.80;4.28;;;;;;;31.70;34.59;99570.03;10378320;28;20387;-58
2023/06/20 14:58:00;;;;;;;5.43;4.72;;;;;;;31.68;35.31;99563.19;10378131;28;20638;-57
2023/06/20 15:03:02;;;;;;;4.95;4.45;;;;;;;31.62;35.22;99567.06;10381676;28;20563;-57
2023/06/20 15:08:04;;;;;;;5.28;4.70;;;;;;;31.57;35.69;99576.13;10378161;28;20111;-57
2023/06/20 15:13:07;;;;;;;5.25;4.85;;;;;;;31.57;36.03;99559.63;10376400;28;20049;-57
2023/06/20 15:18:09;;;;;;;5.93;5.40;;;;;;;31.55;35.35;99548.09;10366830;28;20055;-57
2023/06/20 15:23:11;;;;;;;;;;;;;;;31.55;35.71;99550.84;10373384;28;20113;-57
2023/06/20 15:28:12;;;;;;;6.00;5.07;;;;;;;31.48;35.34;99555.78;10375467;28;20026;-57
2023/06/20 15:33:13;;;;;;;5.82;4.75;;;;;;;31.47;35.60;99538.47;10367602;28;20493;-57
2023/06/20 15:38:15;;;;;;;5.35;4.70;;;;;;;31.52;35.76;99543.94;10378248;28;20217;-57
2023/06/20 15:43:18;;;;;;;5.30;4.63;;;;;;;31.57;35.87;99554.13;10386444;28;20049;-57
2023/06/20 15:48:22;;;;;;;5.75;5.22;;;;;;;31.44;35.12;99532.72;10373753;28;20398;-57
2023/06/20 15:53:24;;;;;;;7.43;5.80;;;;;;;31.52;35.32;99529.38;10381744;28;20044;-57
2023/06/20 15:58:26;;;;;;;5.50;5.00;;;;;;;31.46;35.25;99525.00;10380079;28;20052;-63
2023/06/20 16:03:28;;;;;;;5.43;5.03;;;;;;;31.39;34.60;99530.78;10378967;28;20053;-58
2023/06/20 16:08:30;;;;;;;5.32;4.93;;;;;;;31.23;35.50;99516.28;10381982;28;20074;-57
2023/06/20 16:13:32;;;;;;;5.75;5.05;;;;;;;31.15;35.13;99509.44;10390059;28;20053;-62
2023/06/20 16:18:34;;;;;;;5.68;4.43;;;;;;;31.19;35.71;99512.44;10392389;28;20128;-57
2023/06/20 16:23:36;;;;;;;;;;;;;;;31.27;34.57;99505.53;10393442;28;20053;-58
2023/06/20 16:28:40;;;;;;;5.05;4.57;;;;;;;31.24;34.06;99495.91;10396895;28;19929;-57
2023/06/20 16:33:41;;;;;;;;;;;;;;;31.20;33.40;99500.34;10378182;28;20187;-57
2023/06/20 16:38:53;;;;;;;4.65;4.07;;;;;;;31.10;33.12;99498.44;10373923;28;21066;-58
2023/06/20 16:43:54;;;;;;;4.60;3.55;;;;;;;31.09;32.72;99488.56;10381868;28;20048;-64
2023/06/20 16:48:56;;;;;;;4.93;4.00;;;;;;;31.10;33.43;99492.13;10379278;28;20061;-58
2023/06/20 16:53:57;;;;;;;5.40;3.92;;;;;;;31.06;33.39;99489.09;10386060;28;20101;-62
2023/06/20 16:58:59;;;;;;;4.25;3.85;;;;;;;31.07;33.78;99482.50;10380724;28;20689;-58
2023/06/20 17:04:04;;;;;;;4.00;3.70;;;;;;;31.06;33.27;99466.28;10377125;28;20054;-58
2023/06/20 17:09:06;;;;;;;4.10;3.70;;;;;;;30.93;33.75;99468.50;10375500;28;20080;-57
2023/06/20 17:14:07;;;;;;;4.50;4.03;;;;;;;30.82;34.23;99472.34;10377591;28;20795;-57
2023/06/20 17:19:09;;;;;;;4.75;4.25;;;;;;;30.71;34.30;99470.72;10372569;28;20114;-57
2023/06/20 17:24:12;;;;;;;6.17;4.57;;;;;;;30.57;34.84;99470.47;10374624;28;20080;-57
2023/06/20 17:29:14;;;;;;;4.82;4.05;;;;;;;30.52;35.45;99463.03;10370959;28;21056;-58
2023/06/20 17:34:16;;;;;;;6.30;4.70;;;;;;;30.47;35.74;99463.03;10363647;28;20081;-57
2023/06/20 17:39:17;;;;;;;5.88;4.25;;;;;;;30.42;36.01;99463.06;10382943;28;20064;-57
2023/06/20 17:44:19;;;;;;;5.32;4.82;;;;;;;30.34;36.17;99472.59;10384395;28;20056;-57
2023/06/20 17:49:22;;;;;;;5.18;4.70;;;;;;;30.27;36.64;99478.38;10371345;28;20143;-57
2023/06/20 17:54:23;;;;;;;7.63;5.05;;;;;;;30.26;37.34;99482.22;10371493;28;20087;-57
2023/06/20 17:59:25;;;;;;;5.43;4.82;;;;;;;30.19;39.04;99525.59;10383146;28;20053;-57
2023/06/20 18:04:27;;;;;;;6.63;5.20;;;;;;;29.97;42.60;99575.19;10378027;28;20969;-62
2023/06/20 18:09:28;;;;;;;19.33;9.05;;;;;;;28.50;60.64;99627.47;10376421;28;20295;-56
2023/06/20 18:14:30;;;;;;;11.13;7.07;;;;;;;27.62;63.07;99583.69;10377128;28;20651;-56
2023/06/20 18:19:32;;;;;;;9.43;6.60;;;;;;;27.36;60.67;99566.13;10379583;28;20049;-57
2023/06/20 18:24:57;;;;;;;11.75;6.50;;;;;;;27.46;59.48;99569.81;10381866;28;20073;-57
2023/06/20 18:29:59;;;;;;;6.47;5.72;;;;;;;27.54;60.80;99562.28;10381798;28;20506;-57
2023/06/20 18:35:00;;;;;;;10.80;7.17;;;;;;;27.52;63.83;99563.34;10376802;28;20496;-56
2023/06/20 18:40:02;;;;;;;7.88;7.00;;;;;;;27.54;66.30;99545.88;10378245;28;20063;-57
2023/06/20 18:45:05;;;;;;;7.90;7.20;;;;;;;27.44;65.79;99550.13;10383407;28;20723;-57
2023/06/20 18:50:08;;;;;;;8.20;7.32;;;;;;;27.40;67.74;99537.19;10382303;28;20080;-57
2023/06/20 18:55:09;;;;;;;8.55;7.75;;;;;;;27.38;67.79;99550.28;10380546;28;20060;-57
2023/06/20 19:00:12;;;;;;;14.25;8.15;;;;;;;27.39;67.65;99557.41;10374413;28;20048;-56
2023/06/20 19:05:13;;;;;;;8.07;7.25;;;;;;;27.02;66.40;99556.00;10382768;28;20137;-57
2023/06/20 19:10:15;;;;;;;8.13;7.32;;;;;;;26.83;69.99;99560.91;10367860;28;20056;-58
2023/06/20 19:15:16;;;;;;;8.13;7.32;;;;;;;26.63;72.64;99562.19;10378049;28;20059;-57
2023/06/20 19:20:19;;;;;;;7.88;7.13;;;;;;;26.73;71.80;99561.53;10386572;28;20059;-57
2023/06/20 19:25:21;;;;;;;8.30;7.07;;;;;;;26.50;71.52;99572.56;10383334;28;20140;-57
2023/06/20 19:30:22;;;;;;;10.43;6.67;;;;;;;26.52;73.16;99592.25;10386239;28;20413;-57
2023/06/20 19:35:24;;;;;;;7.93;6.90;;;;;;;26.62;73.22;99619.75;10370672;28;20060;-57
2023/06/20 19:40:25;;;;;;;7.82;7.05;;;;;;;26.64;73.04;99623.88;10385174;28;20055;-57
2023/06/20 19:45:27;;;;;;;8.13;6.00;;;;;;;26.59;69.09;99626.50;10379186;28;20105;-58
2023/06/20 19:50:35;;;;;;;11.88;7.85;;;;;;;26.52;71.16;99625.00;10376008;28;20706;-58
2023/06/20 19:55:37;;;;;;;7.35;6.65;;;;;;;26.51;70.15;99639.72;10377303;28;20048;-58
2023/06/20 20:00:39;;;;;;;9.00;6.10;;;;;;;26.48;69.74;99641.03;10369902;28;20362;-60
2023/06/20 20:05:40;;;;;;;7.50;6.63;;;;;;;26.42;71.55;99626.47;10378849;28;20056;-58
2023/06/20 20:10:42;;;;;;;7.17;6.47;;;;;;;26.33;69.80;99622.44;10388398;28;20056;-58
2023/06/20 20:15:44;;;;;;;7.00;5.78;;;;;;;26.28;70.87;99622.38;10378883;28;20774;-58
2023/06/20 20:20:46;;;;;;;6.07;5.47;;;;;;;26.24;68.57;99630.22;10383981;28;20056;-56
2023/06/20 20:25:47;;;;;;;10.23;7.30;;;;;;;26.20;69.27;99644.59;10375215;28;20935;-58
2023/06/20 20:30:49;;;;;;;8.18;7.47;;;;;;;26.11;67.31;99669.47;10378232;28;20063;-57
2023/06/20 20:35:50;;;;;;;9.93;7.15;;;;;;;26.01;67.14;99688.34;10380022;28;20057;-58
2023/06/20 20:40:52;;;;;;;7.82;7.00;;;;;;;25.86;66.92;99688.81;10371331;28;20056;-57
2023/06/20 20:45:53;;;;;;;7.93;7.15;;;;;;;25.77;67.92;99696.50;10376594;28;20064;-57
2023/06/20 20:50:55;;;;;;;7.65;6.93;;;;;;;25.71;67.21;99710.25;10378018;28;20122;-58
2023/06/20 20:55:57;;;;;;;9.75;7.30;;;;;;;25.55;68.36;99709.06;10387365;28;20910;-51
2023/06/20 21:00:58;;;;;;;9.85;7.65;;;;;;;25.51;69.39;99730.50;10386283;28;20068;-51
2023/06/20 21:06:00;;;;;;;10.40;8.32;;;;;;;25.48;68.50;99730.16;10386602;28;20617;-50
2023/06/20 21:11:01;;;;;;;8.35;7.07;;;;;;;25.49;69.00;99753.59;10385193;28;20100;-50
2023/06/20 21:16:03;;;;;;;8.45;7.65;;;;;;;25.47;69.67;99755.72;10390593;28;20148;-51
2023/06/20 21:21:06;;;;;;;9.48;8.00;;;;;;;25.45;70.24;99757.88;10376508;28;20753;-51
2023/06/20 21:26:07;;;;;;;8.23;7.25;;;;;;;25.41;70.89;99758.31;10393382;28;20395;-50
2023/06/20 21:31:09;;;;;;;9.65;7.95;;;;;;;25.47;70.95;99772.06;10392419;28;20060;-51
2023/06/20 21:36:10;;;;;;;9.00;8.10;;;;;;;25.46;71.17;99768.53;10397121;28;20045;-51
2023/06/20 21:41:12;;;;;;;9.95;8.90;;;;;;;25.43;70.81;99781.78;10394112;28;20057;-50
2023/06/20 21:46:13;;;;;;;10.90;7.40;;;;;;;25.40;71.44;99791.22;10395439;28;20100;-50
2023/06/20 21:51:15;;;;;;;8.57;7.38;;;;;;;25.42;72.06;99791.84;10395744;28;20120;-51
2023/06/20 21:56:16;;;;;;;8.88;7.90;;;;;;;25.44;72.33;99794.34;10395895;28;20096;-51
2023/06/20 22:01:18;;;;;;;10.15;9.00;;;;;;;25.45;72.53;99810.47;10400134;28;20053;-51
2023/06/20 22:06:19;;;;;;;9.30;8.18;;;;;;;25.43;72.36;99804.38;10394686;28;20056;-51
2023/06/20 22:11:20;;;;;;;9.82;8.85;;;;;;;25.40;71.94;99800.25;10394513;28;20053;-51
2023/06/20 22:16:22;;;;;;;9.57;8.63;;;;;;;25.32;73.29;99795.13;10396722;28;20049;-51
2023/06/20 22:21:24;;;;;;;10.30;9.23;;;;;;;25.39;72.46;99811.38;10392405;28;20052;-51
2023/06/20 22:26:26;;;;;;;10.98;9.32;;;;;;;25.38;73.06;99812.44;10393963;28;20075;-51
2023/06/20 22:31:27;;;;;;;10.57;9.25;;;;;;;25.31;72.28;99823.44;10394558;28;20131;-51
2023/06/20 22:36:29;;;;;;;10.85;9.75;;;;;;;25.30;73.63;99819.06;10397913;28;20057;-50
2023/06/20 22:41:30;;;;;;;9.30;8.45;;;;;;;25.28;73.88;99826.59;10393508;28;20120;-51
2023/06/20 22:46:32;;;;;;;13.70;9.48;;;;;;;25.28;73.22;99821.16;10376883;28;20049;-51
2023/06/20 22:51:35;;;;;;;9.73;8.82;;;;;;;25.27;73.68;99833.09;10392940;28;20615;-51
2023/06/20 22:56:36;;;;;;;10.40;9.13;;;;;;;25.27;74.05;99849.44;10393449;28;20139;-51
2023/06/20 23:01:39;;;;;;;10.82;9.25;;;;;;;25.24;73.90;99849.91;10397101;28;20056;-51
2023/06/20 23:06:41;;;;;;;10.63;9.63;;;;;;;25.23;74.20;99838.16;10392359;28;20057;-51
2023/06/20 23:11:43;;;;;;;9.80;8.90;;;;;;;25.20;74.16;99845.97;10386925;28;20240;-53
2023/06/20 23:16:45;;;;;;;9.23;7.77;;;;;;;25.01;73.07;99826.94;10383873;28;20122;-50
2023/06/20 23:21:46;;;;;;;9.63;8.63;;;;;;;25.17;73.58;99849.97;10384100;28;20329;-51
2023/06/20 23:26:48;;;;;;;8.80;8.00;;;;;;;25.12;73.27;99846.31;10384718;28;20056;-52